createdAt,value
2018-06-24T00:01:10.136Z,89.87
2018-06-24T00:02:09.892Z,90.06
2018-06-24T00:04:03.157Z,90.25
2018-06-24T00:05:03.094Z,90.59
2018-06-24T00:06:56.993Z,90.68
2018-06-24T00:07:56.302Z,91.06
2018-06-24T00:09:49.647Z,90.88
2018-06-24T00:10:49.511Z,91.64
2018-06-24T00:12:42.797Z,91.45
2018-06-24T00:13:42.759Z,92.11
2018-06-24T00:15:36.019Z,91.68
2018-06-24T00:16:35.961Z,91.49
2018-06-24T00:18:29.199Z,90.82
2018-06-24T00:19:29.136Z,90.25
2018-06-24T00:21:22.427Z,90.73
2018-06-24T00:22:22.347Z,90.25
2018-06-24T00:24:15.608Z,91.30
2018-06-24T00:25:15.544Z,90.59
2018-06-24T00:27:08.941Z,91.97
2018-06-24T00:28:08.751Z,91.83
2018-06-24T00:30:02.052Z,91.74
2018-06-24T00:31:01.961Z,91.39
2018-06-24T00:32:55.337Z,91.68
2018-06-24T00:33:55.274Z,91.78
2018-06-24T00:35:48.565Z,91.39
2018-06-24T00:36:48.485Z,91.11
2018-06-24T00:38:41.863Z,91.54
2018-06-24T00:39:41.692Z,91.45
2018-06-24T00:41:34.973Z,91.74
2018-06-24T00:42:34.891Z,91.54
2018-06-24T00:44:28.171Z,91.35
2018-06-24T00:45:28.100Z,91.54
2018-06-24T00:47:21.393Z,92.21
2018-06-24T00:48:21.309Z,91.93
2018-06-24T00:50:14.598Z,92.21
2018-06-24T00:51:14.516Z,92.21
2018-06-24T00:53:07.789Z,91.54
2018-06-24T00:54:07.724Z,92.40
2018-06-24T00:56:01.124Z,92.21
2018-06-24T00:57:00.922Z,92.59
2018-06-24T00:58:54.195Z,92.97
2018-06-24T00:59:54.134Z,92.97
2018-06-24T01:01:47.424Z,92.02
2018-06-24T01:02:47.340Z,91.74
2018-06-24T01:04:40.603Z,92.21
2018-06-24T01:05:40.540Z,92.97
2018-06-24T01:07:33.824Z,93.16
2018-06-24T01:08:33.742Z,93.26
2018-06-24T01:10:27.135Z,92.88
2018-06-24T01:11:26.948Z,92.97
2018-06-24T01:13:20.223Z,94.41
2018-06-24T01:14:20.154Z,93.45
2018-06-24T01:16:13.553Z,93.84
2018-06-24T01:17:13.362Z,93.93
2018-06-24T01:19:06.636Z,94.41
2018-06-24T01:20:06.575Z,94.60
2018-06-24T01:21:59.968Z,94.98
2018-06-24T01:22:59.780Z,94.51
2018-06-24T01:24:53.054Z,94.60
2018-06-24T01:25:52.990Z,94.60
2018-06-24T01:27:46.361Z,95.65
2018-06-24T01:28:46.276Z,95.84
2018-06-24T01:30:39.674Z,96.42
2018-06-24T01:31:39.485Z,95.65
2018-06-24T01:33:32.757Z,96.22
2018-06-24T01:34:32.698Z,96.13
2018-06-24T01:36:25.984Z,96.03
2018-06-24T01:37:25.900Z,96.22
2018-06-24T01:39:19.173Z,95.65
2018-06-24T01:40:19.107Z,96.22
2018-06-24T01:42:12.399Z,96.03
2018-06-24T01:43:12.317Z,95.56
2018-06-24T01:45:05.589Z,96.32
2018-06-24T01:46:05.525Z,95.65
2018-06-24T01:47:58.810Z,96.32
2018-06-24T01:48:58.725Z,95.94
2018-06-24T01:50:52.018Z,96.17
2018-06-24T01:51:51.933Z,96.37
2018-06-24T01:53:45.195Z,95.84
2018-06-24T01:54:45.135Z,96.32
2018-06-24T01:56:38.420Z,96.27
2018-06-24T01:57:38.340Z,96.27
2018-06-24T01:59:31.613Z,97.03
2018-06-24T02:00:31.552Z,96.99
2018-06-24T02:02:24.946Z,97.42
2018-06-24T02:03:24.754Z,97.13
2018-06-24T02:05:18.027Z,97.71
2018-06-24T02:06:17.962Z,97.85
2018-06-24T02:08:11.462Z,97.52
2018-06-24T02:09:11.381Z,97.99
2018-06-24T02:11:04.791Z,97.89
2018-06-24T02:12:04.588Z,97.99
2018-06-24T02:13:58.466Z,98.75
2018-06-24T02:14:57.794Z,98.57
2018-06-24T02:16:51.084Z,99.80
2018-06-24T02:17:51.002Z,99.71
2018-06-24T02:19:44.273Z,99.09
2018-06-24T02:20:44.210Z,99.85
2018-06-24T02:22:37.500Z,99.99
2018-06-24T02:23:37.461Z,99.99
2018-06-24T02:25:30.796Z,99.99
2018-06-24T02:26:30.626Z,99.99
2018-06-24T02:28:23.908Z,99.99
2018-06-24T02:29:23.823Z,99.99
2018-06-24T02:31:17.203Z,99.99
2018-06-24T02:32:17.033Z,99.33
2018-06-24T02:34:10.358Z,99.62
2018-06-24T02:35:10.273Z,99.43
2018-06-24T02:37:03.564Z,99.62
2018-06-24T02:38:03.481Z,99.99
2018-06-24T02:39:56.754Z,99.99
2018-06-24T02:40:56.688Z,99.99
2018-06-24T02:42:49.979Z,99.99
2018-06-24T02:43:49.895Z,99.99
2018-06-24T02:45:43.168Z,99.90
2018-06-24T02:46:43.103Z,99.99
2018-06-24T02:48:36.387Z,99.99
2018-06-24T02:49:36.303Z,99.99
2018-06-24T02:51:29.574Z,99.90
2018-06-24T02:52:29.510Z,99.99
2018-06-24T02:54:22.802Z,99.99
2018-06-24T02:55:22.717Z,99.99
2018-06-24T02:57:16.024Z,99.99
2018-06-24T02:58:15.926Z,99.99
2018-06-24T03:00:09.198Z,99.99
2018-06-24T03:01:09.133Z,99.99
2018-06-24T03:03:02.427Z,99.99
2018-06-24T03:04:02.341Z,99.99
2018-06-24T03:05:56.727Z,99.99
2018-06-24T03:06:56.399Z,99.99
2018-06-24T03:08:49.692Z,99.99
2018-06-24T03:09:49.607Z,99.99
2018-06-24T03:11:42.880Z,99.99
2018-06-24T03:12:42.815Z,99.99
2018-06-24T03:14:36.107Z,99.99
2018-06-24T03:15:36.021Z,99.99
2018-06-24T03:17:29.402Z,99.99
2018-06-24T03:18:29.227Z,99.99
2018-06-24T03:20:22.535Z,99.99
2018-06-24T03:21:22.435Z,99.99
2018-06-24T03:23:15.729Z,99.99
2018-06-24T03:24:15.641Z,99.99
2018-06-24T03:26:08.914Z,99.99
2018-06-24T03:27:08.850Z,99.99
2018-06-24T03:29:02.142Z,99.99
2018-06-24T03:30:02.066Z,99.99
2018-06-24T03:31:55.332Z,99.99
2018-06-24T03:32:55.266Z,99.99
2018-06-24T03:34:48.564Z,99.99
2018-06-24T03:35:48.475Z,99.99
2018-06-24T03:37:41.852Z,99.99
2018-06-24T03:38:41.673Z,99.99
2018-06-24T03:40:35.070Z,99.99
2018-06-24T03:41:34.882Z,99.99
2018-06-24T03:43:28.174Z,99.99
2018-06-24T03:44:28.089Z,99.99
2018-06-24T03:46:21.360Z,99.99
2018-06-24T03:47:21.296Z,99.99
2018-06-24T03:49:14.695Z,99.99
2018-06-24T03:50:14.533Z,99.99
2018-06-24T03:52:07.883Z,99.99
2018-06-24T03:53:07.713Z,99.99
2018-06-24T03:55:01.004Z,99.99
2018-06-24T03:56:00.921Z,99.99
2018-06-24T03:57:54.184Z,99.99
2018-06-24T03:58:54.122Z,99.99
2018-06-24T04:00:47.414Z,99.99
2018-06-24T04:01:47.331Z,99.99
2018-06-24T04:03:40.711Z,99.57
2018-06-24T04:04:40.545Z,99.85
2018-06-24T04:06:33.938Z,99.95
2018-06-24T04:07:33.749Z,98.90
2018-06-24T04:09:27.041Z,98.23
2018-06-24T04:10:26.960Z,97.94
2018-06-24T04:12:20.339Z,98.23
2018-06-24T04:13:20.173Z,97.94
2018-06-24T04:15:13.463Z,98.23
2018-06-24T04:16:13.378Z,98.13
2018-06-24T04:18:06.643Z,98.13
2018-06-24T04:19:06.580Z,97.66
2018-06-24T04:20:59.872Z,97.66
2018-06-24T04:21:59.787Z,98.23
2018-06-24T04:23:53.063Z,97.66
2018-06-24T04:24:52.997Z,97.37
2018-06-24T04:26:46.288Z,97.94
2018-06-24T04:27:46.207Z,97.94
2018-06-24T04:29:39.498Z,97.85
2018-06-24T04:30:39.415Z,97.94
2018-06-24T04:32:32.794Z,97.94
2018-06-24T04:33:32.626Z,97.85
2018-06-24T04:35:25.917Z,97.66
2018-06-24T04:36:25.836Z,97.66
2018-06-24T04:38:19.102Z,98.13
2018-06-24T04:39:19.036Z,98.33
2018-06-24T04:41:12.356Z,98.42
2018-06-24T04:42:12.272Z,98.61
2018-06-24T04:44:05.654Z,98.13
2018-06-24T04:45:05.481Z,99.52
2018-06-24T04:46:58.880Z,99.99
2018-06-24T04:47:58.691Z,99.99
2018-06-24T04:49:51.998Z,99.99
2018-06-24T04:50:51.901Z,99.99
2018-06-24T04:52:45.173Z,99.57
2018-06-24T04:53:45.112Z,98.90
2018-06-24T04:55:38.509Z,99.95
2018-06-24T04:56:38.321Z,99.99
2018-06-24T04:58:31.701Z,99.57
2018-06-24T04:59:31.523Z,98.52
2018-06-24T05:01:24.815Z,98.99
2018-06-24T05:02:24.732Z,98.33
2018-06-24T05:04:18.005Z,99.09
2018-06-24T05:05:17.941Z,98.80
2018-06-24T05:07:11.232Z,99.19
2018-06-24T05:08:11.150Z,99.28
2018-06-24T05:10:04.424Z,98.38
2018-06-24T05:11:04.360Z,97.71
2018-06-24T05:12:57.654Z,97.99
2018-06-24T05:13:57.568Z,97.13
2018-06-24T05:15:50.865Z,96.66
2018-06-24T05:16:50.783Z,96.75
2018-06-24T05:18:44.052Z,97.13
2018-06-24T05:19:43.988Z,96.75
2018-06-24T05:21:37.280Z,97.99
2018-06-24T05:22:37.198Z,97.71
2018-06-24T05:24:30.474Z,97.42
2018-06-24T05:25:30.410Z,97.94
2018-06-24T05:27:23.808Z,99.95
2018-06-24T05:28:23.621Z,99.85
2018-06-24T05:30:16.895Z,99.33
2018-06-24T05:31:16.831Z,99.62
2018-06-24T05:33:10.124Z,99.99
2018-06-24T05:34:10.042Z,99.99
2018-06-24T05:36:03.424Z,97.99
2018-06-24T05:37:03.253Z,98.95
2018-06-24T05:38:56.549Z,99.95
2018-06-24T05:39:56.465Z,99.99
2018-06-24T05:41:49.768Z,99.99
2018-06-24T05:42:49.675Z,99.14
2018-06-24T05:44:43.056Z,98.66
2018-06-24T05:45:42.886Z,97.90
2018-06-24T05:47:36.172Z,99.33
2018-06-24T05:48:36.089Z,99.14
2018-06-24T05:50:29.368Z,99.14
2018-06-24T05:51:29.301Z,98.18
2018-06-24T05:53:22.595Z,98.09
2018-06-24T05:54:22.566Z,98.28
2018-06-24T05:56:15.893Z,98.28
2018-06-24T05:57:15.723Z,97.33
2018-06-24T05:59:09.018Z,99.04
2018-06-24T06:00:08.938Z,98.75
2018-06-24T06:02:02.216Z,99.04
2018-06-24T06:03:02.148Z,98.95
2018-06-24T06:04:55.462Z,98.57
2018-06-24T06:05:55.378Z,97.52
2018-06-24T06:07:48.675Z,97.13
2018-06-24T06:08:48.594Z,97.04
2018-06-24T06:10:41.972Z,98.18
2018-06-24T06:11:41.816Z,98.57
2018-06-24T06:13:35.099Z,98.85
2018-06-24T06:14:35.016Z,97.99
2018-06-24T06:16:28.337Z,98.14
2018-06-24T06:17:28.274Z,96.56
2018-06-24T06:19:21.569Z,98.95
2018-06-24T06:20:21.487Z,99.04
2018-06-24T06:22:14.762Z,99.85
2018-06-24T06:23:14.700Z,99.99
2018-06-24T06:25:08.096Z,99.76
2018-06-24T06:26:07.908Z,99.99
2018-06-24T06:28:01.194Z,99.99
2018-06-24T06:29:01.111Z,99.99
2018-06-24T06:30:54.386Z,99.48
2018-06-24T06:31:54.320Z,99.57
2018-06-24T06:33:47.615Z,99.09
2018-06-24T06:34:47.533Z,98.52
2018-06-24T06:36:40.810Z,97.28
2018-06-24T06:37:40.744Z,98.04
2018-06-24T06:39:34.036Z,97.99
2018-06-24T06:40:33.951Z,98.09
2018-06-24T06:42:27.331Z,98.18
2018-06-24T06:43:27.161Z,97.23
2018-06-24T06:45:20.595Z,97.71
2018-06-24T06:46:20.371Z,96.99
2018-06-24T06:48:13.636Z,95.75
2018-06-24T06:49:13.576Z,95.46
2018-06-24T06:51:06.926Z,94.98
2018-06-24T06:52:06.791Z,94.02
2018-06-24T06:54:00.183Z,94.60
2018-06-24T06:54:59.998Z,94.98
2018-06-24T06:56:53.275Z,94.12
2018-06-24T06:57:53.266Z,94.50
2018-06-24T06:59:46.505Z,96.37
2018-06-24T07:00:46.424Z,96.37
2018-06-24T07:02:39.697Z,97.08
2018-06-24T07:03:39.635Z,96.22
2018-06-24T07:05:32.929Z,94.41
2018-06-24T07:06:32.850Z,94.60
2018-06-24T07:08:26.119Z,94.02
2018-06-24T07:09:26.054Z,94.02
2018-06-24T07:11:19.359Z,93.74
2018-06-24T07:12:19.275Z,93.69
2018-06-24T07:14:12.569Z,92.63
2018-06-24T07:15:12.487Z,93.02
2018-06-24T07:17:05.873Z,91.83
2018-06-24T07:18:05.700Z,93.07
2018-06-24T07:19:58.998Z,94.46
2018-06-24T07:20:58.914Z,95.84
2018-06-24T07:22:52.191Z,95.61
2018-06-24T07:23:52.128Z,96.08
2018-06-24T07:25:45.432Z,95.22
2018-06-24T07:26:45.352Z,94.55
2018-06-24T07:28:38.731Z,94.84
2018-06-24T07:29:38.561Z,95.12
2018-06-24T07:31:31.856Z,95.51
2018-06-24T07:32:31.774Z,95.70
2018-06-24T07:34:25.060Z,95.17
2018-06-24T07:35:24.994Z,94.60
2018-06-24T07:37:18.294Z,93.16
2018-06-24T07:38:18.212Z,93.07
2018-06-24T07:40:11.506Z,94.12
2018-06-24T07:41:11.426Z,93.93
2018-06-24T07:43:04.706Z,92.73
2018-06-24T07:44:04.640Z,91.20
2018-06-24T07:45:58.042Z,90.34
2018-06-24T07:46:57.854Z,90.91
2018-06-24T07:48:51.132Z,90.63
2018-06-24T07:49:51.070Z,91.01
2018-06-24T07:51:44.366Z,90.72
2018-06-24T07:52:44.289Z,91.58
2018-06-24T07:54:37.564Z,92.54
2018-06-24T07:55:37.502Z,92.06
2018-06-24T07:57:30.844Z,90.34
2018-06-24T07:58:30.716Z,89.90
2018-06-24T08:00:24.015Z,88.33
2018-06-24T08:01:23.933Z,88.71
2018-06-24T08:03:17.866Z,89.76
2018-06-24T08:04:17.151Z,90.82
2018-06-24T08:06:10.444Z,91.49
2018-06-24T08:07:10.365Z,90.82
2018-06-24T08:09:03.643Z,89.76
2018-06-24T08:10:03.580Z,89.95
2018-06-24T08:11:56.981Z,90.44
2018-06-24T08:12:56.796Z,90.53
2018-06-24T08:14:50.073Z,90.77
2018-06-24T08:15:50.010Z,91.73
2018-06-24T08:17:43.411Z,91.83
2018-06-24T08:18:43.227Z,91.25
2018-06-24T08:20:36.627Z,90.53
2018-06-24T08:21:36.443Z,89.95
2018-06-24T08:23:29.822Z,89.58
2018-06-24T08:24:29.657Z,89.29
2018-06-24T08:26:23.058Z,90.24
2018-06-24T08:27:22.873Z,90.30
2018-06-24T08:29:16.148Z,90.91
2018-06-24T08:30:16.085Z,90.15
2018-06-24T08:32:09.384Z,91.01
2018-06-24T08:33:09.303Z,90.34
2018-06-24T08:35:02.681Z,89.38
2018-06-24T08:36:02.517Z,88.81
2018-06-24T08:37:55.804Z,88.90
2018-06-24T08:38:55.792Z,89.14
2018-06-24T08:40:49.019Z,87.18
2018-06-24T08:41:48.939Z,87.37
2018-06-24T08:43:42.214Z,87.08
2018-06-24T08:44:42.153Z,86.70
2018-06-24T08:46:35.553Z,87.47
2018-06-24T08:47:35.374Z,88.04
2018-06-24T08:49:28.650Z,89.09
2018-06-24T08:50:28.588Z,89.00
2018-06-24T08:52:21.883Z,87.47
2018-06-24T08:53:21.803Z,86.55
2018-06-24T08:55:15.086Z,85.50
2018-06-24T08:56:15.020Z,85.98
2018-06-24T08:58:08.359Z,85.50
2018-06-24T08:59:08.281Z,85.50
2018-06-24T09:01:01.699Z,85.50
2018-06-24T09:02:01.496Z,85.06
2018-06-24T09:03:54.774Z,84.83
2018-06-24T09:04:54.713Z,84.88
2018-06-24T09:06:48.117Z,83.44
2018-06-24T09:07:47.932Z,84.06
2018-06-24T09:09:41.210Z,85.69
2018-06-24T09:10:41.151Z,84.45
2018-06-24T09:12:34.447Z,82.67
2018-06-24T09:13:34.430Z,83.01
2018-06-24T09:15:27.805Z,84.83
2018-06-24T09:16:27.585Z,85.31
2018-06-24T09:18:20.874Z,84.01
2018-06-24T09:19:20.794Z,82.09
2018-06-24T09:21:14.192Z,82.29
2018-06-24T09:22:14.129Z,82.67
2018-06-24T09:24:07.360Z,82.76
2018-06-24T09:25:07.282Z,82.57
2018-06-24T09:27:00.566Z,82.34
2018-06-24T09:28:00.486Z,82.57
2018-06-24T09:29:53.757Z,83.05
2018-06-24T09:30:53.758Z,82.96
2018-06-24T09:32:46.987Z,84.39
2018-06-24T09:33:46.902Z,84.11
2018-06-24T09:35:40.289Z,83.97
2018-06-24T09:36:40.111Z,84.64
2018-06-24T09:38:33.399Z,85.60
2018-06-24T09:39:33.320Z,85.60
2018-06-24T09:41:26.593Z,82.48
2018-06-24T09:42:26.527Z,82.67
2018-06-24T09:44:19.818Z,82.00
2018-06-24T09:45:19.734Z,82.19
2018-06-24T09:47:13.021Z,83.25
2018-06-24T09:48:12.940Z,83.05
2018-06-24T09:50:06.212Z,82.19
2018-06-24T09:51:06.149Z,82.67
2018-06-24T09:52:59.482Z,82.09
2018-06-24T09:53:59.356Z,82.34
2018-06-24T09:55:52.687Z,83.44
2018-06-24T09:56:52.568Z,82.67
2018-06-24T09:58:45.865Z,83.39
2018-06-24T09:59:45.786Z,84.64
2018-06-24T10:01:39.056Z,84.68
2018-06-24T10:02:38.994Z,84.01
2018-06-24T10:04:32.363Z,84.49
2018-06-24T10:05:32.282Z,84.26
2018-06-24T10:07:25.569Z,85.21
2018-06-24T10:08:25.489Z,85.21
2018-06-24T10:10:18.873Z,85.31
2018-06-24T10:11:18.705Z,85.54
2018-06-24T10:13:11.993Z,84.01
2018-06-24T10:14:11.910Z,84.01
2018-06-24T10:16:05.293Z,83.63
2018-06-24T10:17:05.118Z,82.86
2018-06-24T10:18:58.409Z,83.97
2018-06-24T10:19:58.326Z,84.16
2018-06-24T10:21:51.708Z,84.58
2018-06-24T10:22:51.534Z,84.01
2018-06-24T10:24:44.936Z,84.20
2018-06-24T10:25:44.742Z,84.64
2018-06-24T10:27:38.013Z,84.39
2018-06-24T10:28:37.951Z,83.48
2018-06-24T10:30:31.351Z,82.23
2018-06-24T10:31:31.162Z,83.34
2018-06-24T10:33:24.463Z,86.60
2018-06-24T10:34:24.368Z,86.02
2018-06-24T10:36:17.639Z,86.79
2018-06-24T10:37:17.577Z,87.27
2018-06-24T10:39:11.034Z,90.33
2018-06-24T10:40:10.785Z,91.10
2018-06-24T10:42:04.052Z,90.76
2018-06-24T10:43:03.994Z,90.72
2018-06-24T10:44:57.291Z,92.73
2018-06-24T10:45:57.214Z,92.82
2018-06-24T10:47:50.635Z,93.98
2018-06-24T10:48:50.421Z,93.35
2018-06-24T10:50:43.711Z,97.61
2018-06-24T10:51:43.629Z,97.66
2018-06-24T10:53:37.928Z,99.99
2018-06-24T10:54:37.836Z,99.99
2018-06-24T10:56:32.217Z,99.99
2018-06-24T10:57:32.040Z,99.99
2018-06-24T10:59:25.322Z,99.99
2018-06-24T11:00:25.243Z,99.99
2018-06-24T11:02:18.569Z,99.99
2018-06-24T11:03:18.912Z,99.99
2018-06-24T11:05:11.853Z,99.99
2018-06-24T11:06:11.541Z,99.81
2018-06-24T11:08:04.785Z,97.90
2018-06-24T11:09:04.691Z,99.99
2018-06-24T11:10:58.090Z,99.99
2018-06-24T11:11:57.894Z,99.24
2018-06-24T11:13:51.167Z,97.14
2018-06-24T11:14:51.102Z,96.61
2018-06-24T11:16:44.408Z,97.66
2018-06-24T11:17:44.320Z,97.80
2018-06-24T11:19:37.607Z,99.19
2018-06-24T11:20:37.525Z,99.82
2018-06-24T11:22:30.820Z,94.35
2018-06-24T11:23:30.734Z,95.36
2018-06-24T11:25:24.026Z,91.14
2018-06-24T11:26:23.945Z,92.44
2018-06-24T11:28:17.218Z,91.67
2018-06-24T11:29:17.157Z,91.96
2018-06-24T11:31:10.454Z,90.23
2018-06-24T11:32:10.371Z,91.86
2018-06-24T11:34:03.652Z,92.30
2018-06-24T11:35:03.592Z,91.14
2018-06-24T11:36:57.029Z,92.63
2018-06-24T11:37:56.801Z,92.54
2018-06-24T11:39:50.208Z,93.49
2018-06-24T11:40:50.013Z,93.98
2018-06-24T11:42:43.282Z,91.82
2018-06-24T11:43:43.220Z,91.14
2018-06-24T11:45:36.625Z,87.84
2018-06-24T11:46:36.439Z,86.30
2018-06-24T11:48:29.815Z,86.74
2018-06-24T11:49:29.644Z,86.35
2018-06-24T11:51:22.936Z,86.07
2018-06-24T11:52:22.854Z,87.65
2018-06-24T11:54:16.126Z,88.23
2018-06-24T11:55:16.067Z,89.47
2018-06-24T11:57:09.357Z,89.72
2018-06-24T11:58:09.275Z,90.00
2018-06-24T12:00:02.545Z,89.37
2018-06-24T12:01:02.485Z,88.32
2018-06-24T12:02:55.783Z,89.43
2018-06-24T12:03:55.703Z,89.90
2018-06-24T12:05:48.990Z,90.14
2018-06-24T12:06:48.931Z,88.27
2018-06-24T12:08:42.184Z,87.31
2018-06-24T12:09:42.130Z,86.64
2018-06-24T12:11:35.405Z,86.64
2018-06-24T12:12:35.327Z,87.84
2018-06-24T12:14:28.598Z,88.32
2018-06-24T12:15:28.536Z,88.66
2018-06-24T12:17:21.834Z,89.18
2018-06-24T12:18:21.753Z,88.99
2018-06-24T12:20:15.022Z,88.03
2018-06-24T12:21:14.962Z,87.50
2018-06-24T12:23:08.249Z,86.83
2018-06-24T12:24:08.167Z,87.37
2018-06-24T12:26:01.574Z,87.50
2018-06-24T12:27:01.380Z,86.69
2018-06-24T12:28:54.652Z,86.83
2018-06-24T12:29:54.592Z,86.25
2018-06-24T12:31:47.879Z,87.17
2018-06-24T12:32:47.801Z,87.02
2018-06-24T12:34:41.063Z,86.07
2018-06-24T12:35:41.009Z,86.98
2018-06-24T12:37:34.362Z,86.50
2018-06-24T12:38:34.333Z,87.55
2018-06-24T12:40:27.549Z,87.65
2018-06-24T12:41:27.493Z,87.27
2018-06-24T12:43:20.833Z,87.79
2018-06-24T12:44:20.698Z,87.02
2018-06-24T12:46:14.085Z,86.41
2018-06-24T12:47:13.922Z,86.83
2018-06-24T12:49:07.194Z,86.83
2018-06-24T12:50:07.114Z,86.25
2018-06-24T12:52:00.516Z,86.45
2018-06-24T12:53:00.322Z,86.83
2018-06-24T12:54:53.704Z,87.27
2018-06-24T12:55:53.525Z,87.41
2018-06-24T12:57:46.821Z,87.65
2018-06-24T12:58:46.862Z,88.13
2018-06-24T13:00:40.852Z,88.80
2018-06-24T13:01:39.961Z,88.90
2018-06-24T13:03:33.246Z,88.61
2018-06-24T13:04:33.165Z,88.80
2018-06-24T13:06:26.439Z,89.37
2018-06-24T13:07:26.374Z,89.66
2018-06-24T13:09:19.672Z,88.27
2018-06-24T13:10:19.595Z,87.21
2018-06-24T13:12:12.860Z,87.02
2018-06-24T13:13:12.801Z,87.02
2018-06-24T13:15:06.199Z,87.70
2018-06-24T13:16:06.006Z,88.27
2018-06-24T13:17:59.297Z,88.17
2018-06-24T13:18:59.216Z,87.21
2018-06-24T13:20:52.485Z,87.88
2018-06-24T13:21:52.424Z,88.65
2018-06-24T13:23:45.824Z,89.61
2018-06-24T13:24:45.630Z,90.28
2018-06-24T13:26:39.025Z,87.98
2018-06-24T13:27:38.838Z,87.60
2018-06-24T13:29:32.251Z,88.08
2018-06-24T13:30:32.082Z,88.61
2018-06-24T13:32:25.429Z,90.33
2018-06-24T13:33:25.252Z,90.62
2018-06-24T13:35:18.655Z,91.39
2018-06-24T13:36:18.474Z,91.39
2018-06-24T13:38:11.773Z,92.06
2018-06-24T13:39:11.683Z,90.72
2018-06-24T13:41:05.069Z,90.05
2018-06-24T13:42:04.889Z,90.62
2018-06-24T13:43:58.286Z,90.00
2018-06-24T13:44:58.093Z,90.09
2018-06-24T13:46:51.370Z,90.28
2018-06-24T13:47:51.313Z,90.09
2018-06-24T13:49:44.709Z,92.25
2018-06-24T13:50:44.524Z,91.53
2018-06-24T13:52:37.801Z,91.43
2018-06-24T13:53:37.740Z,93.30
2018-06-24T13:55:31.024Z,95.17
2018-06-24T13:56:30.945Z,96.08
2018-06-24T13:58:24.216Z,95.94
2018-06-24T13:59:24.154Z,96.61
2018-06-24T14:01:17.449Z,96.61
2018-06-24T14:02:17.368Z,96.42
2018-06-24T14:04:10.667Z,97.18
2018-06-24T14:05:10.584Z,97.14
2018-06-24T14:07:04.853Z,95.89
2018-06-24T14:08:04.850Z,95.36
2018-06-24T14:09:58.086Z,94.02
2018-06-24T14:10:58.004Z,93.63
2018-06-24T14:12:51.283Z,95.56
2018-06-24T14:13:51.209Z,95.75
2018-06-24T14:15:44.610Z,99.99
2018-06-24T14:16:44.416Z,99.99
2018-06-24T14:18:37.693Z,99.99
2018-06-24T14:19:37.629Z,99.99
2018-06-24T14:21:31.032Z,99.99
2018-06-24T14:22:30.837Z,99.99
2018-06-24T14:24:24.143Z,99.99
2018-06-24T14:25:24.051Z,99.99
2018-06-24T14:27:17.320Z,99.99
2018-06-24T14:28:17.261Z,99.99
2018-06-24T14:30:10.547Z,99.99
2018-06-24T14:31:10.466Z,99.99
2018-06-24T14:33:03.743Z,99.99
2018-06-24T14:34:03.677Z,99.99
2018-06-24T14:35:57.087Z,99.99
2018-06-24T14:36:56.891Z,99.99
2018-06-24T14:38:51.159Z,99.99
2018-06-24T14:39:51.095Z,99.99
2018-06-24T14:41:45.385Z,99.99
2018-06-24T14:42:45.299Z,99.99
2018-06-24T14:44:38.566Z,99.99
2018-06-24T14:45:38.504Z,99.99
2018-06-24T14:47:31.909Z,99.99
2018-06-24T14:48:31.709Z,99.99
2018-06-24T14:50:24.995Z,99.99
2018-06-24T14:51:24.913Z,99.99
2018-06-24T14:53:18.295Z,99.99
2018-06-24T14:54:18.116Z,99.99
2018-06-24T14:56:11.422Z,99.99
2018-06-24T14:57:11.317Z,99.99
2018-06-24T14:59:04.589Z,99.99
2018-06-24T15:00:04.532Z,99.99
2018-06-24T15:01:57.818Z,99.99
2018-06-24T15:02:57.731Z,99.99
2018-06-24T15:04:50.995Z,99.99
2018-06-24T15:05:50.934Z,99.99
2018-06-24T15:07:45.332Z,99.99
2018-06-24T15:08:45.137Z,99.99
2018-06-24T15:10:38.537Z,99.99
2018-06-24T15:11:38.343Z,99.99
2018-06-24T15:13:31.608Z,99.99
2018-06-24T15:14:31.544Z,99.99
2018-06-24T15:16:24.844Z,99.99
2018-06-24T15:17:24.750Z,99.99
2018-06-24T15:19:18.021Z,99.99
2018-06-24T15:20:17.956Z,99.99
2018-06-24T15:22:11.243Z,99.99
2018-06-24T15:23:11.163Z,99.99
2018-06-24T15:25:04.546Z,99.99
2018-06-24T15:26:04.397Z,99.99
2018-06-24T15:27:57.684Z,99.99
2018-06-24T15:28:57.612Z,99.99
2018-06-24T15:30:50.873Z,99.99
2018-06-24T15:31:50.810Z,99.99
2018-06-24T15:33:44.100Z,99.99
2018-06-24T15:34:44.008Z,99.99
2018-06-24T15:36:37.412Z,99.99
2018-06-24T15:37:37.256Z,99.99
2018-06-24T15:39:31.484Z,99.99
2018-06-24T15:40:31.422Z,99.99
2018-06-24T15:42:24.708Z,99.99
2018-06-24T15:43:24.619Z,99.99
2018-06-24T15:45:17.896Z,99.99
2018-06-24T15:46:17.832Z,99.99
2018-06-24T15:48:12.234Z,99.99
2018-06-24T15:49:12.034Z,99.99
2018-06-24T15:51:05.302Z,99.99
2018-06-24T15:52:05.241Z,99.99
2018-06-24T15:53:59.149Z,99.99
2018-06-24T15:54:58.446Z,99.99
2018-06-24T15:56:51.712Z,99.99
2018-06-24T15:57:51.652Z,99.99
2018-06-24T15:59:44.949Z,99.99
2018-06-24T16:00:44.866Z,99.99
2018-06-24T16:02:38.274Z,99.99
2018-06-24T16:03:38.074Z,99.99
2018-06-24T16:05:31.334Z,99.99
2018-06-24T16:06:31.276Z,99.99
2018-06-24T16:08:24.563Z,99.99
2018-06-24T16:09:24.481Z,99.99
2018-06-24T16:11:17.752Z,99.87
2018-06-24T16:12:17.744Z,99.99
2018-06-24T16:14:10.979Z,99.99
2018-06-24T16:15:10.893Z,99.99
2018-06-24T16:17:04.172Z,99.99
2018-06-24T16:18:04.111Z,99.99
2018-06-24T16:19:57.407Z,99.99
2018-06-24T16:20:57.441Z,99.99
2018-06-24T16:22:50.601Z,99.99
2018-06-24T16:23:50.546Z,99.99
2018-06-24T16:25:43.943Z,99.99
2018-06-24T16:26:43.753Z,99.99
2018-06-24T16:28:37.043Z,99.99
2018-06-24T16:29:36.956Z,99.99
2018-06-24T16:31:30.228Z,99.99
2018-06-24T16:32:30.167Z,99.99
2018-06-24T16:34:23.451Z,99.99
2018-06-24T16:35:23.371Z,99.99
2018-06-24T16:37:16.640Z,99.99
2018-06-24T16:38:16.580Z,99.99
2018-06-24T16:40:09.879Z,99.99
2018-06-24T16:41:09.792Z,99.99
2018-06-24T16:43:03.061Z,99.99
2018-06-24T16:44:02.990Z,99.99
2018-06-24T16:45:56.398Z,99.99
2018-06-24T16:46:56.289Z,99.99
2018-06-24T16:48:49.600Z,99.99
2018-06-24T16:49:49.560Z,99.99
2018-06-24T16:51:42.801Z,99.99
2018-06-24T16:52:42.716Z,99.99
2018-06-24T16:54:35.537Z,99.99
2018-06-24T16:55:35.456Z,99.99
2018-06-24T16:57:28.733Z,99.99
2018-06-24T16:58:28.669Z,99.99
2018-06-24T17:00:22.071Z,99.99
2018-06-24T17:01:21.884Z,99.99
2018-06-24T17:03:15.171Z,99.99
2018-06-24T17:04:15.097Z,99.99
2018-06-24T17:06:08.408Z,99.99
2018-06-24T17:07:08.326Z,99.99
2018-06-24T17:09:01.623Z,99.99
2018-06-24T17:10:01.543Z,99.99
2018-06-24T17:11:54.941Z,99.99
2018-06-24T17:12:54.754Z,99.99
2018-06-24T17:14:48.048Z,99.99
2018-06-24T17:15:47.967Z,99.99
2018-06-24T17:17:41.237Z,99.99
2018-06-24T17:18:41.171Z,99.99
2018-06-24T17:20:34.464Z,99.99
2018-06-24T17:21:34.383Z,99.99
2018-06-24T17:23:27.659Z,99.99
2018-06-24T17:24:27.595Z,99.99
2018-06-24T17:26:20.896Z,99.99
2018-06-24T17:27:20.814Z,99.99
2018-06-24T17:29:14.090Z,99.99
2018-06-24T17:30:14.027Z,99.99
2018-06-24T17:32:07.321Z,99.99
2018-06-24T17:33:07.240Z,99.99
2018-06-24T17:35:00.623Z,99.99
2018-06-24T17:36:00.452Z,99.99
2018-06-24T17:37:53.741Z,99.99
2018-06-24T17:38:53.658Z,99.99
2018-06-24T17:40:46.952Z,99.99
2018-06-24T17:41:46.868Z,99.99
2018-06-24T17:43:40.160Z,99.99
2018-06-24T17:44:40.095Z,99.99
2018-06-24T17:46:33.390Z,99.99
2018-06-24T17:47:33.354Z,99.99
2018-06-24T17:49:26.689Z,99.99
2018-06-24T17:50:26.517Z,99.99
2018-06-24T17:52:19.916Z,99.99
2018-06-24T17:53:19.818Z,99.99
2018-06-24T17:55:13.011Z,99.99
2018-06-24T17:56:12.947Z,99.99
2018-06-24T17:58:06.243Z,99.99
2018-06-24T17:59:06.163Z,99.99
2018-06-24T18:00:59.574Z,99.99
2018-06-24T18:01:59.391Z,99.99
2018-06-24T18:03:52.671Z,99.99
2018-06-24T18:04:52.604Z,99.99
2018-06-24T18:06:46.005Z,99.99
2018-06-24T18:07:45.816Z,99.99
2018-06-24T18:09:39.098Z,99.99
2018-06-24T18:10:39.037Z,99.99
2018-06-24T18:12:32.326Z,99.99
2018-06-24T18:13:32.249Z,99.99
2018-06-24T18:15:25.628Z,99.99
2018-06-24T18:16:25.460Z,99.99
2018-06-24T18:18:18.747Z,99.99
2018-06-24T18:19:18.665Z,99.99
2018-06-24T18:21:11.943Z,99.99
2018-06-24T18:22:11.878Z,99.99
2018-06-24T18:24:05.176Z,99.99
2018-06-24T18:25:05.094Z,99.99
2018-06-24T18:26:58.392Z,99.99
2018-06-24T18:27:58.384Z,99.99
2018-06-24T18:29:51.586Z,99.99
2018-06-24T18:30:51.530Z,99.99
2018-06-24T18:32:48.271Z,99.99
2018-06-24T18:33:44.738Z,99.99
2018-06-24T18:35:38.016Z,99.99